KBLM/BLM METAR and TAF weather

Enter ICAO airport designator
Station Type Date Time Source
KBLM METAR 2020/02/20 23:56 UTC NOAA

KBLM 202356Z AUTO 32007KT 10SM CLR M01/M10 A3042 RMK AO2 SLP304 T10061100 10022 21006 53008 FZRANO


Station Type Date Time Source
KBLM Decoded METAR 2020/02/20 23:56 UTC NOAA

Belmar-Farmingdale, NJ, United States (KBLM) 40-11N 074-08W
Feb 20, 2020 - 06:56 PM EST / 2020.02.20 2356 UTC
Wind: from the NW (320 degrees) at 8 MPH (7 KT):0
Visibility: 10 mile(s):0
Sky conditions: clear
Temperature: 30.9 F (-0.6 C)
Windchill: 23 F (-5 C):1
Dew Point: 14.0 F (-10.0 C)
Relative Humidity: 48%
Pressure (altimeter): 30.42 in. Hg (1030 hPa)
Pressure tendency: 0.02 inches (0.8 hPa) higher than three hours ago
ob: KBLM 202356Z AUTO 32007KT 10SM CLR M01/M10 A3042 RMK AO2 SLP304 T10061100 10022 21006 53008 FZRANO
cycle: 0

Station Type Date Time Source
KBLM TAF UTC NOAA

Error!

Example: see airport list